createdAt,value
2017-12-08T00:00:39.670Z,1.60
2017-12-08T00:03:07.117Z,1.60
2017-12-08T00:05:34.574Z,1.60
2017-12-08T00:08:02.042Z,1.50
2017-12-08T00:10:31.017Z,1.80
2017-12-08T00:12:58.460Z,2.33
2017-12-08T00:15:25.929Z,1.83
2017-12-08T00:17:53.380Z,1.67
2017-12-08T00:20:20.845Z,1.60
2017-12-08T00:22:48.285Z,1.58
2017-12-08T00:25:15.765Z,1.90
2017-12-08T00:27:43.209Z,1.60
2017-12-08T00:30:10.669Z,1.62
2017-12-08T00:32:38.108Z,1.67
2017-12-08T00:35:05.569Z,1.50
2017-12-08T00:37:33.025Z,1.37
2017-12-08T00:40:00.469Z,1.30
2017-12-08T00:42:27.916Z,1.65
2017-12-08T00:44:55.363Z,1.60
2017-12-08T00:47:23.581Z,1.30
2017-12-08T00:49:51.026Z,1.40
2017-12-08T00:52:18.482Z,1.50
2017-12-08T00:57:19.777Z,1.12
2017-12-08T00:59:47.225Z,1.20
2017-12-08T01:02:14.723Z,1.30
2017-12-08T01:04:42.245Z,1.00
2017-12-08T01:07:09.700Z,1.30
2017-12-08T01:09:37.154Z,1.35
2017-12-08T01:12:04.611Z,1.45
2017-12-08T01:14:32.060Z,1.12
2017-12-08T01:16:59.523Z,1.20
2017-12-08T01:19:26.977Z,1.10
2017-12-08T01:21:54.425Z,1.12
2017-12-08T01:24:21.869Z,1.10
2017-12-08T01:26:49.331Z,1.12
2017-12-08T01:29:16.778Z,1.20
2017-12-08T01:31:44.238Z,1.02
2017-12-08T01:34:11.720Z,1.30
2017-12-08T01:36:39.172Z,1.10
2017-12-08T01:39:06.613Z,1.20
2017-12-08T01:41:34.062Z,1.00
2017-12-08T01:44:01.509Z,1.20
2017-12-08T01:46:28.973Z,1.20
2017-12-08T01:48:56.412Z,1.10
2017-12-08T01:51:23.871Z,1.02
2017-12-08T01:53:51.312Z,0.95
2017-12-08T01:56:19.528Z,1.10
2017-12-08T01:58:46.976Z,1.05
2017-12-08T02:01:14.429Z,1.20
2017-12-08T02:03:41.872Z,1.00
2017-12-08T02:06:09.321Z,1.25
2017-12-08T02:08:37.537Z,1.37
2017-12-08T02:11:04.980Z,1.50
2017-12-08T02:13:32.436Z,1.50
2017-12-08T02:15:59.897Z,1.80
2017-12-08T02:18:27.374Z,1.40
2017-12-08T02:20:54.830Z,1.83
2017-12-08T02:23:22.286Z,1.87
2017-12-08T02:25:49.728Z,1.35
2017-12-08T02:28:17.184Z,1.67
2017-12-08T02:30:44.657Z,1.50
2017-12-08T02:33:12.217Z,1.12
2017-12-08T02:35:39.665Z,1.70
2017-12-08T02:38:07.121Z,1.48
2017-12-08T02:40:34.664Z,1.20
2017-12-08T02:43:02.113Z,1.30
2017-12-08T02:45:29.557Z,1.60
2017-12-08T02:47:57.069Z,1.50
2017-12-08T02:50:24.695Z,1.58
2017-12-08T02:52:52.140Z,1.60
2017-12-08T02:55:19.580Z,1.40
2017-12-08T02:57:47.032Z,2.05
2017-12-08T03:00:15.248Z,1.65
2017-12-08T03:02:42.796Z,1.37
2017-12-08T03:05:10.291Z,1.25
2017-12-08T03:07:37.729Z,1.30
2017-12-08T03:10:05.190Z,1.50
2017-12-08T03:12:32.639Z,1.30
2017-12-08T03:15:00.090Z,1.40
2017-12-08T03:17:27.536Z,1.50
2017-12-08T03:19:55.025Z,1.62
2017-12-08T03:22:22.584Z,1.70
2017-12-08T03:24:50.032Z,1.25
2017-12-08T03:27:17.477Z,1.50
2017-12-08T03:29:44.938Z,1.48
2017-12-08T03:32:12.399Z,1.50
2017-12-08T03:34:39.941Z,1.58
2017-12-08T03:37:07.371Z,1.40
2017-12-08T03:39:34.825Z,1.62
2017-12-08T03:42:03.036Z,1.40
2017-12-08T03:44:30.584Z,2.08
2017-12-08T03:46:58.041Z,1.50
2017-12-08T03:49:25.534Z,1.60
2017-12-08T03:51:52.983Z,1.40
2017-12-08T03:54:20.434Z,2.03
2017-12-08T03:56:47.882Z,1.50
2017-12-08T03:59:15.796Z,1.65
2017-12-08T04:01:43.233Z,1.80
2017-12-08T04:04:10.689Z,1.98
2017-12-08T04:06:38.136Z,2.00
2017-12-08T04:09:05.591Z,1.73
2017-12-08T04:11:33.036Z,1.80
2017-12-08T04:14:00.604Z,2.42
2017-12-08T04:16:28.049Z,2.10
2017-12-08T04:18:55.516Z,6.82
2017-12-08T04:21:22.961Z,2.03
2017-12-08T04:23:50.408Z,2.28
2017-12-08T04:26:17.865Z,1.80
2017-12-08T04:28:45.318Z,2.35
2017-12-08T04:31:12.773Z,2.10
2017-12-08T04:33:40.216Z,2.22
2017-12-08T04:36:07.673Z,2.70
2017-12-08T04:38:35.176Z,2.08
2017-12-08T04:41:02.702Z,2.20
2017-12-08T04:43:30.132Z,1.70
2017-12-08T04:45:57.581Z,2.67
2017-12-08T04:48:25.797Z,2.35
2017-12-08T04:50:53.249Z,2.42
2017-12-08T04:53:20.697Z,2.35
2017-12-08T04:55:48.197Z,1.92
2017-12-08T04:58:15.646Z,2.37
2017-12-08T05:00:43.101Z,1.95
2017-12-08T05:03:10.546Z,2.17
2017-12-08T05:05:38.001Z,2.35
2017-12-08T05:08:05.452Z,2.35
2017-12-08T05:10:32.902Z,2.75
2017-12-08T05:13:00.345Z,2.20
2017-12-08T05:15:32.518Z,2.92
2017-12-08T05:18:00.801Z,2.40
2017-12-08T05:20:28.285Z,2.80
2017-12-08T05:22:55.725Z,2.22
2017-12-08T05:25:23.180Z,2.65
2017-12-08T05:27:50.623Z,2.83
2017-12-08T05:30:18.081Z,1.92
2017-12-08T05:32:45.571Z,2.47
2017-12-08T05:35:13.005Z,2.90
2017-12-08T05:37:40.465Z,2.75
2017-12-08T05:40:07.908Z,2.97
2017-12-08T05:42:35.364Z,3.15
2017-12-08T05:45:02.803Z,2.85
2017-12-08T05:47:30.248Z,2.60
2017-12-08T05:49:58.458Z,3.40
2017-12-08T05:52:25.913Z,3.80
2017-12-08T05:54:53.364Z,3.05
2017-12-08T05:57:20.821Z,3.67
2017-12-08T05:59:48.282Z,5.18
2017-12-08T06:02:15.762Z,3.65
2017-12-08T06:04:43.208Z,4.30
2017-12-08T06:07:10.670Z,4.00
2017-12-08T06:09:38.105Z,4.10
2017-12-08T06:12:05.561Z,4.50
2017-12-08T06:14:33.012Z,5.87
2017-12-08T06:17:00.458Z,3.78
2017-12-08T06:19:27.896Z,5.72
2017-12-08T06:21:56.122Z,6.22
2017-12-08T06:24:23.572Z,5.15
2017-12-08T06:26:51.025Z,4.12
2017-12-08T06:29:18.502Z,6.03
2017-12-08T06:31:45.958Z,7.00
2017-12-08T06:34:13.406Z,3.75
2017-12-08T06:36:40.867Z,4.50
2017-12-08T06:39:08.317Z,4.07
2017-12-08T06:41:35.774Z,3.97
2017-12-08T06:44:03.220Z,5.93
2017-12-08T06:46:30.670Z,4.45
2017-12-08T06:48:58.129Z,5.00
2017-12-08T06:51:25.573Z,6.35
2017-12-08T06:53:53.030Z,4.25
2017-12-08T06:56:20.479Z,5.00
2017-12-08T06:58:47.928Z,5.68
2017-12-08T07:01:16.155Z,5.53
2017-12-08T07:03:43.598Z,6.12
2017-12-08T07:06:11.040Z,3.55
2017-12-08T07:08:38.498Z,4.25
2017-12-08T07:11:05.942Z,5.43
2017-12-08T07:13:33.451Z,5.90
2017-12-08T07:16:00.897Z,6.32
2017-12-08T07:18:28.359Z,4.62
2017-12-08T07:20:55.807Z,6.12
2017-12-08T07:23:23.261Z,5.45
2017-12-08T07:25:50.724Z,3.97
2017-12-08T07:28:18.186Z,5.00
2017-12-08T07:30:45.633Z,3.55
2017-12-08T07:33:13.093Z,7.47
2017-12-08T07:35:40.546Z,4.35
2017-12-08T07:38:08.108Z,5.47
2017-12-08T07:40:35.554Z,5.15
2017-12-08T07:43:03.014Z,4.50
2017-12-08T07:45:30.451Z,4.03
2017-12-08T07:47:57.910Z,5.37
2017-12-08T07:50:25.404Z,4.65
2017-12-08T07:52:52.857Z,4.87
2017-12-08T07:55:20.297Z,4.87
2017-12-08T07:57:47.751Z,3.55
2017-12-08T08:00:15.214Z,5.85
2017-12-08T08:02:42.653Z,4.22
2017-12-08T08:05:10.114Z,4.18
2017-12-08T08:07:37.609Z,4.40
2017-12-08T08:10:05.156Z,6.10
2017-12-08T08:12:32.708Z,4.07
2017-12-08T08:15:00.164Z,4.50
2017-12-08T08:17:27.629Z,4.37
2017-12-08T08:19:55.081Z,3.87
2017-12-08T08:22:22.536Z,4.65
2017-12-08T08:24:49.981Z,4.05
2017-12-08T08:27:17.428Z,3.42
2017-12-08T08:29:44.905Z,3.72
2017-12-08T08:32:12.357Z,4.47
2017-12-08T08:34:39.812Z,2.95
2017-12-08T08:37:07.257Z,3.87
2017-12-08T08:39:34.708Z,4.55
2017-12-08T08:42:02.215Z,3.03
2017-12-08T08:44:29.669Z,4.97
2017-12-08T08:46:57.113Z,2.45
2017-12-08T08:49:24.579Z,2.85
2017-12-08T08:51:52.018Z,2.70
2017-12-08T08:54:19.475Z,2.42
2017-12-08T08:56:46.917Z,3.17
2017-12-08T08:59:14.381Z,4.20
2017-12-08T09:01:41.818Z,1.90
2017-12-08T09:04:09.269Z,1.85
2017-12-08T09:06:36.730Z,2.90
2017-12-08T09:09:04.214Z,2.67
2017-12-08T09:11:31.666Z,4.40
2017-12-08T09:13:59.117Z,2.37
2017-12-08T09:16:26.576Z,3.78
2017-12-08T09:18:54.020Z,3.03
2017-12-08T09:21:21.478Z,3.60
2017-12-08T09:23:48.961Z,3.75
2017-12-08T09:26:16.517Z,4.00
2017-12-08T09:28:43.966Z,2.97
2017-12-08T09:31:11.408Z,2.20
2017-12-08T09:33:38.852Z,2.33
2017-12-08T09:36:06.310Z,2.60
2017-12-08T09:38:33.869Z,3.35
2017-12-08T09:41:01.870Z,3.60
2017-12-08T09:43:29.308Z,2.30
2017-12-08T09:45:56.765Z,3.87
2017-12-08T09:48:24.209Z,4.00
2017-12-08T09:50:51.694Z,3.58
2017-12-08T09:53:19.156Z,2.70
2017-12-08T09:55:46.605Z,2.50
2017-12-08T09:58:14.057Z,3.58
2017-12-08T10:00:41.517Z,3.25
2017-12-08T10:03:08.961Z,2.85
2017-12-08T10:05:36.426Z,3.03
2017-12-08T10:08:03.929Z,2.70
2017-12-08T10:10:31.337Z,3.28
2017-12-08T10:12:58.801Z,2.80
2017-12-08T10:15:26.262Z,3.72
2017-12-08T10:17:53.714Z,4.35
2017-12-08T10:20:21.169Z,2.70
2017-12-08T10:22:48.622Z,3.37
2017-12-08T10:25:16.069Z,3.75
2017-12-08T10:27:43.525Z,4.30
2017-12-08T10:30:10.973Z,3.55
2017-12-08T10:32:38.428Z,2.83
2017-12-08T10:35:05.912Z,2.70
2017-12-08T10:37:33.369Z,2.97
2017-12-08T10:40:00.809Z,3.50
2017-12-08T10:42:28.265Z,3.45
2017-12-08T10:44:55.714Z,3.00
2017-12-08T10:47:23.171Z,2.70
2017-12-08T10:49:50.608Z,2.25
2017-12-08T10:52:18.062Z,1.92
2017-12-08T10:54:45.515Z,2.42
2017-12-08T10:57:13.730Z,2.08
2017-12-08T10:59:41.201Z,2.12
2017-12-08T11:02:08.763Z,5.25
2017-12-08T11:04:36.261Z,2.28
2017-12-08T11:07:03.774Z,2.42
2017-12-08T11:09:31.329Z,3.33
2017-12-08T11:11:58.893Z,3.08
2017-12-08T11:14:26.451Z,3.42
2017-12-08T11:16:53.906Z,2.15
2017-12-08T11:19:21.357Z,2.33
2017-12-08T11:21:48.804Z,2.03
2017-12-08T11:24:16.252Z,3.33
2017-12-08T11:26:43.729Z,2.92
2017-12-08T11:29:11.173Z,2.10
2017-12-08T11:31:38.630Z,3.45
2017-12-08T11:34:06.077Z,3.08
2017-12-08T11:36:33.518Z,3.28
2017-12-08T11:39:00.971Z,3.12
2017-12-08T11:41:28.483Z,3.22
2017-12-08T11:43:55.929Z,1.98
2017-12-08T11:46:23.384Z,3.42
2017-12-08T11:48:50.839Z,2.95
2017-12-08T11:51:18.286Z,2.08
2017-12-08T11:53:45.734Z,2.50
2017-12-08T11:56:13.182Z,2.70
2017-12-08T11:58:40.644Z,2.90
2017-12-08T12:01:08.076Z,3.40
2017-12-08T12:03:35.534Z,2.83
2017-12-08T12:06:02.972Z,4.15
2017-12-08T12:08:31.199Z,3.47
2017-12-08T12:10:58.641Z,2.55
2017-12-08T12:13:26.133Z,3.75
2017-12-08T12:15:53.582Z,2.70
2017-12-08T12:18:21.026Z,2.83
2017-12-08T12:20:48.472Z,1.37
2017-12-08T12:23:15.926Z,1.23
2017-12-08T12:25:43.384Z,1.10
2017-12-08T12:28:10.842Z,1.33
2017-12-08T12:30:38.330Z,0.88
2017-12-08T12:33:05.777Z,1.10
2017-12-08T12:35:33.225Z,1.10
2017-12-08T12:38:00.683Z,1.20
2017-12-08T12:40:28.125Z,1.10
2017-12-08T12:42:55.578Z,1.27
2017-12-08T12:45:23.020Z,1.30
2017-12-08T12:47:50.466Z,1.20
2017-12-08T12:50:18.697Z,1.60
2017-12-08T12:52:46.136Z,2.87
2017-12-08T12:55:13.588Z,2.75
2017-12-08T12:57:41.025Z,3.47
2017-12-08T13:00:08.482Z,1.40
2017-12-08T13:02:35.916Z,1.35
2017-12-08T13:05:04.137Z,1.40
2017-12-08T13:07:31.583Z,1.50
2017-12-08T13:09:59.037Z,1.40
2017-12-08T13:12:26.474Z,1.23
2017-12-08T13:14:53.921Z,1.50
2017-12-08T13:17:22.124Z,1.60
2017-12-08T13:19:49.583Z,1.25
2017-12-08T13:22:17.020Z,1.30
2017-12-08T13:24:44.469Z,1.37
2017-12-08T13:27:12.683Z,1.60
2017-12-08T13:29:40.134Z,1.83
2017-12-08T13:32:07.587Z,1.10
2017-12-08T13:34:35.032Z,2.25
2017-12-08T13:37:02.521Z,1.73
2017-12-08T13:39:29.973Z,2.03
2017-12-08T13:41:57.420Z,1.48
2017-12-08T13:44:24.865Z,2.35
2017-12-08T13:46:53.100Z,1.67
2017-12-08T13:49:21.314Z,1.50
2017-12-08T13:51:48.759Z,2.30
2017-12-08T13:54:28.054Z,1.40
2017-12-08T13:56:56.309Z,1.75
2017-12-08T13:59:23.762Z,1.90
2017-12-08T14:01:51.210Z,1.50
2017-12-08T14:04:18.662Z,1.98
2017-12-08T14:06:46.113Z,1.62
2017-12-08T14:09:13.561Z,1.60
2017-12-08T14:11:41.005Z,2.03
2017-12-08T14:14:08.445Z,1.90
2017-12-08T14:16:36.671Z,1.50
2017-12-08T14:19:04.108Z,2.40
2017-12-08T14:21:31.575Z,2.75
2017-12-08T14:23:59.021Z,3.15
2017-12-08T14:26:26.474Z,2.05
2017-12-08T14:28:53.971Z,1.70
2017-12-08T14:31:21.521Z,1.40
2017-12-08T14:33:48.961Z,2.20
2017-12-08T14:36:16.412Z,2.00
2017-12-08T14:38:43.837Z,1.80
2017-12-08T14:41:11.325Z,1.60
2017-12-08T14:43:38.773Z,1.67
2017-12-08T14:46:06.256Z,1.83
2017-12-08T14:48:33.706Z,1.90
2017-12-08T14:51:01.157Z,1.48
2017-12-08T14:53:28.613Z,1.60
2017-12-08T14:55:56.059Z,1.80
2017-12-08T14:58:23.510Z,1.83
2017-12-08T15:00:51.005Z,1.48
2017-12-08T15:03:18.449Z,1.60
2017-12-08T15:05:45.913Z,1.70
2017-12-08T15:08:13.365Z,1.60
2017-12-08T15:10:40.832Z,1.42
2017-12-08T15:13:08.267Z,1.67
2017-12-08T15:15:35.719Z,1.40
2017-12-08T15:20:38.130Z,1.70
2017-12-08T15:23:05.618Z,1.80
2017-12-08T15:25:33.014Z,2.50
2017-12-08T15:28:00.474Z,1.87
2017-12-08T15:30:27.913Z,1.42
2017-12-08T15:32:55.412Z,2.83
2017-12-08T15:35:22.853Z,1.42
2017-12-08T15:37:50.305Z,1.85
2017-12-08T15:40:17.753Z,2.17
2017-12-08T15:42:45.217Z,3.15
2017-12-08T15:45:12.809Z,2.55
2017-12-08T15:47:40.256Z,2.00
2017-12-08T15:50:07.697Z,4.20
2017-12-08T15:52:35.163Z,3.25
2017-12-08T15:55:02.626Z,2.80
2017-12-08T15:57:30.084Z,2.45
2017-12-08T15:59:57.529Z,2.30
2017-12-08T16:02:24.977Z,3.20
2017-12-08T16:04:52.427Z,3.75
2017-12-08T16:07:19.881Z,3.17
2017-12-08T16:09:47.373Z,4.25
2017-12-08T16:12:14.826Z,2.70
2017-12-08T16:14:42.266Z,4.28
2017-12-08T16:17:09.716Z,1.40
2017-12-08T16:19:37.153Z,2.15
2017-12-08T16:22:04.617Z,1.80
2017-12-08T16:24:32.108Z,2.50
2017-12-08T16:26:59.570Z,1.87
2017-12-08T16:29:27.006Z,1.95
2017-12-08T16:31:54.480Z,1.70
2017-12-08T16:34:21.929Z,2.33
2017-12-08T16:36:49.372Z,1.87
2017-12-08T16:39:16.825Z,2.22
2017-12-08T16:41:44.273Z,4.57
2017-12-08T16:44:11.734Z,2.30
2017-12-08T16:46:39.217Z,1.87
2017-12-08T16:49:06.670Z,2.12
2017-12-08T16:51:34.133Z,2.47
2017-12-08T16:54:01.564Z,16.48
2017-12-08T16:56:29.014Z,2.90
2017-12-08T16:58:56.470Z,5.65
2017-12-08T17:01:23.913Z,3.08
2017-12-08T17:03:51.365Z,3.03
2017-12-08T17:06:18.882Z,3.95
2017-12-08T17:08:46.342Z,2.50
2017-12-08T17:11:13.793Z,4.22
2017-12-08T17:13:41.340Z,3.12
2017-12-08T17:16:08.798Z,3.17
2017-12-08T17:18:36.365Z,3.28
2017-12-08T17:21:03.807Z,2.92
2017-12-08T17:23:31.266Z,3.00
2017-12-08T17:25:58.715Z,1.75
2017-12-08T17:28:26.161Z,2.12
2017-12-08T17:30:53.648Z,2.50
2017-12-08T17:33:21.094Z,1.80
2017-12-08T17:35:49.096Z,1.60
2017-12-08T17:38:16.546Z,1.30
2017-12-08T17:40:44.090Z,1.83
2017-12-08T17:43:11.529Z,1.85
2017-12-08T17:45:38.985Z,1.70
2017-12-08T17:48:06.424Z,1.70
2017-12-08T17:50:33.882Z,2.05
2017-12-08T17:53:01.326Z,2.25
2017-12-08T17:55:28.776Z,1.70
2017-12-08T17:57:56.214Z,1.90
2017-12-08T18:00:24.428Z,1.60
2017-12-08T18:02:51.985Z,2.75
2017-12-08T18:05:19.420Z,1.90
2017-12-08T18:07:46.865Z,2.22
2017-12-08T18:10:15.086Z,1.40
2017-12-08T18:12:42.532Z,2.83
2017-12-08T18:15:09.985Z,1.80
2017-12-08T18:17:37.435Z,1.85
2017-12-08T18:20:04.887Z,2.15
2017-12-08T18:22:32.344Z,2.03
2017-12-08T18:24:59.781Z,3.75
2017-12-08T18:27:28.004Z,2.35
2017-12-08T18:29:55.452Z,2.50
2017-12-08T18:32:22.896Z,2.85
2017-12-08T18:34:50.485Z,3.90
2017-12-08T18:37:17.929Z,2.62
2017-12-08T18:39:45.394Z,4.20
2017-12-08T18:42:12.854Z,2.20
2017-12-08T18:44:40.301Z,3.42
2017-12-08T18:47:07.746Z,2.62
2017-12-08T18:49:35.199Z,3.10
2017-12-08T18:52:02.653Z,3.83
2017-12-08T18:54:30.101Z,3.28
2017-12-08T18:56:57.554Z,2.70
2017-12-08T18:59:24.994Z,3.80
2017-12-08T19:01:53.212Z,5.50
2017-12-08T19:04:20.696Z,3.22
2017-12-08T19:06:48.155Z,4.12
2017-12-08T19:09:15.698Z,4.93
2017-12-08T19:11:43.158Z,5.07
2017-12-08T19:14:10.597Z,3.12
2017-12-08T19:16:38.061Z,4.05
2017-12-08T19:19:05.513Z,5.07
2017-12-08T19:21:32.965Z,3.58
2017-12-08T19:24:00.418Z,3.55
2017-12-08T19:26:27.926Z,4.47
2017-12-08T19:28:55.357Z,2.65
2017-12-08T19:31:22.816Z,5.45
2017-12-08T19:33:50.365Z,2.87
2017-12-08T19:36:17.819Z,3.30
2017-12-08T19:38:45.265Z,3.55
2017-12-08T19:41:12.714Z,3.80
2017-12-08T19:43:40.152Z,3.75
2017-12-08T19:46:07.605Z,9.63
2017-12-08T19:48:35.045Z,5.22
2017-12-08T19:51:03.264Z,7.60
2017-12-08T19:53:30.739Z,5.72
2017-12-08T19:55:58.191Z,7.97
2017-12-08T19:58:25.680Z,9.10
2017-12-08T20:00:53.128Z,10.00
2017-12-08T20:03:20.574Z,4.03
2017-12-08T20:05:48.031Z,3.47
2017-12-08T20:08:15.480Z,3.33
2017-12-08T20:10:42.927Z,7.65
2017-12-08T20:13:10.368Z,6.30
2017-12-08T20:15:37.819Z,6.20
2017-12-08T20:18:05.751Z,4.12
2017-12-08T20:20:33.960Z,4.03
2017-12-08T20:23:01.475Z,4.87
2017-12-08T20:25:28.908Z,5.10
2017-12-08T20:27:56.344Z,3.83
2017-12-08T20:30:23.787Z,3.65
2017-12-08T20:32:51.245Z,3.97
2017-12-08T20:35:18.731Z,4.37
2017-12-08T20:37:46.174Z,5.00
2017-12-08T20:40:13.650Z,4.00
2017-12-08T20:42:41.102Z,4.28
2017-12-08T20:45:08.545Z,3.65
2017-12-08T20:47:35.997Z,4.35
2017-12-08T20:50:03.443Z,4.00
2017-12-08T20:52:30.904Z,5.75
2017-12-08T20:54:58.345Z,4.70
2017-12-08T20:57:25.792Z,4.30
2017-12-08T20:59:53.292Z,3.78
2017-12-08T21:02:20.731Z,4.87
2017-12-08T21:04:48.220Z,5.35
2017-12-08T21:07:15.770Z,4.90
2017-12-08T21:09:43.208Z,6.37
2017-12-08T21:12:10.724Z,6.53
2017-12-08T21:14:38.164Z,5.35
2017-12-08T21:17:05.596Z,5.35
2017-12-08T21:19:33.153Z,6.22
2017-12-08T21:22:00.596Z,5.85
2017-12-08T21:24:28.056Z,4.03
2017-12-08T21:26:55.496Z,6.90
2017-12-08T21:29:22.958Z,5.35
2017-12-08T21:31:50.404Z,7.57
2017-12-08T21:34:17.853Z,5.45
2017-12-08T21:36:45.301Z,7.70
2017-12-08T21:39:12.754Z,4.97
2017-12-08T21:41:40.980Z,4.55
2017-12-08T21:44:08.484Z,4.90
2017-12-08T21:46:36.724Z,5.97
2017-12-08T21:49:04.170Z,5.53
2017-12-08T21:51:31.617Z,7.60
2017-12-08T21:53:59.198Z,8.30
2017-12-08T21:56:26.749Z,7.60
2017-12-08T21:58:54.205Z,8.68
2017-12-08T22:02:38.673Z,7.70
2017-12-08T22:05:06.124Z,8.30
2017-12-08T22:07:33.576Z,10.00
2017-12-08T22:10:01.029Z,10.65
2017-12-08T22:12:28.501Z,8.13
2017-12-08T22:14:55.945Z,8.23
2017-12-08T22:17:23.405Z,10.27
2017-12-08T22:19:50.858Z,9.43
2017-12-08T22:22:18.304Z,7.05
2017-12-08T22:24:45.755Z,5.60
2017-12-08T22:27:13.193Z,5.85
2017-12-08T22:29:40.645Z,8.60
2017-12-08T22:32:08.089Z,7.07
2017-12-08T22:34:36.314Z,6.20
2017-12-08T22:37:03.850Z,4.95
2017-12-08T22:39:31.333Z,4.47
2017-12-08T22:41:58.778Z,3.28
2017-12-08T22:44:26.244Z,5.18
2017-12-08T22:46:53.696Z,3.90
2017-12-08T22:49:21.160Z,2.60
2017-12-08T22:51:48.601Z,3.72
2017-12-08T22:54:16.046Z,3.58
2017-12-08T22:56:43.534Z,4.60
2017-12-08T22:59:10.983Z,3.53
2017-12-08T23:01:38.428Z,6.05
2017-12-08T23:04:05.902Z,5.12
2017-12-08T23:06:33.357Z,4.35
2017-12-08T23:09:00.799Z,5.18
2017-12-08T23:11:28.245Z,4.57
2017-12-08T23:13:55.689Z,3.17
2017-12-08T23:16:23.137Z,5.47
2017-12-08T23:18:50.591Z,5.15
2017-12-08T23:21:18.914Z,4.70
2017-12-08T23:23:46.356Z,4.70
2017-12-08T23:26:13.819Z,4.50
2017-12-08T23:28:41.257Z,5.72
2017-12-08T23:31:08.710Z,6.10
2017-12-08T23:33:36.196Z,5.37
2017-12-08T23:36:03.645Z,5.80
2017-12-08T23:38:31.085Z,5.97
2017-12-08T23:40:58.547Z,3.72
2017-12-08T23:43:25.993Z,5.20
2017-12-08T23:45:53.446Z,5.00
2017-12-08T23:48:20.900Z,6.07
2017-12-08T23:50:48.350Z,4.87
2017-12-08T23:53:15.789Z,6.00
2017-12-08T23:55:44.037Z,6.00
2017-12-08T23:58:11.487Z,5.45
